sensor_id;sensor_type;location;lat;lon;timestamp;temperature;humidity
30206;DHT22;17010;51.306;3.150;2023-05-21T00:01:22;13.70;99.90
30206;DHT22;17010;51.306;3.150;2023-05-21T00:03:50;13.70;99.90
30206;DHT22;17010;51.306;3.150;2023-05-21T00:06:18;13.80;99.90
30206;DHT22;17010;51.306;3.150;2023-05-21T00:08:45;13.80;99.90
30206;DHT22;17010;51.306;3.150;2023-05-21T00:11:12;13.80;99.90
30206;DHT22;17010;51.306;3.150;2023-05-21T00:13:38;13.80;99.90
30206;DHT22;17010;51.306;3.150;2023-05-21T00:16:04;13.70;99.90
30206;DHT22;17010;51.306;3.150;2023-05-21T00:18:30;13.70;99.90
30206;DHT22;17010;51.306;3.150;2023-05-21T00:20:57;13.70;99.90
30206;DHT22;17010;51.306;3.150;2023-05-21T00:23:24;13.70;99.90
30206;DHT22;17010;51.306;3.150;2023-05-21T00:25:52;13.70;99.90
30206;DHT22;17010;51.306;3.150;2023-05-21T00:28:18;13.80;99.90
30206;DHT22;17010;51.306;3.150;2023-05-21T00:30:44;13.80;99.90
30206;DHT22;17010;51.306;3.150;2023-05-21T00:33:11;13.80;99.90
30206;DHT22;17010;51.306;3.150;2023-05-21T00:35:39;13.80;99.90
30206;DHT22;17010;51.306;3.150;2023-05-21T00:38:05;13.80;99.90
30206;DHT22;17010;51.306;3.150;2023-05-21T00:40:33;13.80;99.90
30206;DHT22;17010;51.306;3.150;2023-05-21T00:42:59;13.70;99.90
30206;DHT22;17010;51.306;3.150;2023-05-21T00:45:25;13.70;99.90
30206;DHT22;17010;51.306;3.150;2023-05-21T00:47:52;13.60;99.90
30206;DHT22;17010;51.306;3.150;2023-05-21T00:50:22;13.70;99.90
30206;DHT22;17010;51.306;3.150;2023-05-21T00:52:50;13.60;99.90
30206;DHT22;17010;51.306;3.150;2023-05-21T00:55:16;13.60;99.90
30206;DHT22;17010;51.306;3.150;2023-05-21T00:57:44;13.60;99.90
30206;DHT22;17010;51.306;3.150;2023-05-21T01:00:13;13.70;99.90
30206;DHT22;17010;51.306;3.150;2023-05-21T01:02:41;13.60;99.90
30206;DHT22;17010;51.306;3.150;2023-05-21T01:05:09;13.50;99.90
30206;DHT22;17010;51.306;3.150;2023-05-21T01:07:37;13.50;99.90
30206;DHT22;17010;51.306;3.150;2023-05-21T01:10:05;13.50;99.90
30206;DHT22;17010;51.306;3.150;2023-05-21T01:12:32;13.60;99.90
30206;DHT22;17010;51.306;3.150;2023-05-21T01:15:00;13.60;99.90
30206;DHT22;17010;51.306;3.150;2023-05-21T01:17:27;13.50;99.90
30206;DHT22;17010;51.306;3.150;2023-05-21T01:19:56;13.50;99.90
30206;DHT22;17010;51.306;3.150;2023-05-21T01:22:23;13.50;99.90
30206;DHT22;17010;51.306;3.150;2023-05-21T01:24:52;13.50;99.90
30206;DHT22;17010;51.306;3.150;2023-05-21T01:27:20;13.50;99.90
30206;DHT22;17010;51.306;3.150;2023-05-21T01:29:47;13.40;99.90
30206;DHT22;17010;51.306;3.150;2023-05-21T01:32:25;13.40;99.90
30206;DHT22;17010;51.306;3.150;2023-05-21T01:35:04;13.40;99.90
30206;DHT22;17010;51.306;3.150;2023-05-21T01:37:43;13.40;99.90
30206;DHT22;17010;51.306;3.150;2023-05-21T01:40:28;13.40;99.90
30206;DHT22;17010;51.306;3.150;2023-05-21T01:42:57;13.50;99.90
30206;DHT22;17010;51.306;3.150;2023-05-21T01:45:24;13.50;99.90
30206;DHT22;17010;51.306;3.150;2023-05-21T01:47:53;13.50;99.90
30206;DHT22;17010;51.306;3.150;2023-05-21T01:50:24;13.50;99.90
30206;DHT22;17010;51.306;3.150;2023-05-21T01:52:52;13.40;99.90
30206;DHT22;17010;51.306;3.150;2023-05-21T01:55:19;13.40;99.90
30206;DHT22;17010;51.306;3.150;2023-05-21T01:57:51;13.30;99.90
30206;DHT22;17010;51.306;3.150;2023-05-21T02:00:20;13.30;99.90
30206;DHT22;17010;51.306;3.150;2023-05-21T02:02:47;13.30;99.90
30206;DHT22;17010;51.306;3.150;2023-05-21T02:05:13;13.20;99.90
30206;DHT22;17010;51.306;3.150;2023-05-21T02:07:39;13.20;99.90
30206;DHT22;17010;51.306;3.150;2023-05-21T02:10:07;13.20;99.90
30206;DHT22;17010;51.306;3.150;2023-05-21T02:12:34;13.20;99.90
30206;DHT22;17010;51.306;3.150;2023-05-21T02:15:01;13.20;99.90
30206;DHT22;17010;51.306;3.150;2023-05-21T02:17:27;13.20;99.90
30206;DHT22;17010;51.306;3.150;2023-05-21T02:19:59;13.10;99.90
30206;DHT22;17010;51.306;3.150;2023-05-21T02:22:46;13.00;99.90
30206;DHT22;17010;51.306;3.150;2023-05-21T02:25:14;13.10;99.90
30206;DHT22;17010;51.306;3.150;2023-05-21T02:27:41;13.00;99.90
30206;DHT22;17010;51.306;3.150;2023-05-21T02:30:10;13.10;99.90
30206;DHT22;17010;51.306;3.150;2023-05-21T02:32:37;13.00;99.90
30206;DHT22;17010;51.306;3.150;2023-05-21T02:35:08;13.10;99.90
30206;DHT22;17010;51.306;3.150;2023-05-21T02:37:35;13.00;99.90
30206;DHT22;17010;51.306;3.150;2023-05-21T02:40:21;13.00;99.90
30206;DHT22;17010;51.306;3.150;2023-05-21T02:42:47;13.00;99.90
30206;DHT22;17010;51.306;3.150;2023-05-21T02:45:13;12.90;99.90
30206;DHT22;17010;51.306;3.150;2023-05-21T02:47:39;12.90;99.90
30206;DHT22;17010;51.306;3.150;2023-05-21T02:50:07;12.90;99.90
30206;DHT22;17010;51.306;3.150;2023-05-21T02:52:34;12.80;99.90
30206;DHT22;17010;51.306;3.150;2023-05-21T02:55:00;12.80;99.90
30206;DHT22;17010;51.306;3.150;2023-05-21T02:57:26;12.80;99.90
30206;DHT22;17010;51.306;3.150;2023-05-21T02:59:53;12.80;99.90
30206;DHT22;17010;51.306;3.150;2023-05-21T03:02:19;12.70;99.90
30206;DHT22;17010;51.306;3.150;2023-05-21T03:04:45;12.70;99.90
30206;DHT22;17010;51.306;3.150;2023-05-21T03:07:13;12.70;99.90
30206;DHT22;17010;51.306;3.150;2023-05-21T03:09:40;12.80;99.90
30206;DHT22;17010;51.306;3.150;2023-05-21T03:12:10;12.70;99.90
30206;DHT22;17010;51.306;3.150;2023-05-21T03:14:39;12.70;99.90
30206;DHT22;17010;51.306;3.150;2023-05-21T03:17:09;12.70;99.90
30206;DHT22;17010;51.306;3.150;2023-05-21T03:19:40;12.70;99.90
30206;DHT22;17010;51.306;3.150;2023-05-21T03:22:07;12.70;99.90
30206;DHT22;17010;51.306;3.150;2023-05-21T03:24:39;12.70;99.90
30206;DHT22;17010;51.306;3.150;2023-05-21T03:27:07;12.70;99.90
30206;DHT22;17010;51.306;3.150;2023-05-21T03:29:34;12.70;99.90
30206;DHT22;17010;51.306;3.150;2023-05-21T03:32:02;12.60;99.90
30206;DHT22;17010;51.306;3.150;2023-05-21T03:34:28;12.60;99.90
30206;DHT22;17010;51.306;3.150;2023-05-21T03:36:55;12.60;99.90
30206;DHT22;17010;51.306;3.150;2023-05-21T03:39:22;12.70;99.90
30206;DHT22;17010;51.306;3.150;2023-05-21T03:41:48;12.60;99.90
30206;DHT22;17010;51.306;3.150;2023-05-21T03:44:15;12.60;99.90
30206;DHT22;17010;51.306;3.150;2023-05-21T03:46:41;12.60;99.90
30206;DHT22;17010;51.306;3.150;2023-05-21T03:49:07;12.60;99.90
30206;DHT22;17010;51.306;3.150;2023-05-21T03:51:33;12.60;99.90
30206;DHT22;17010;51.306;3.150;2023-05-21T03:53:59;12.70;99.90
30206;DHT22;17010;51.306;3.150;2023-05-21T03:56:26;12.60;99.90
30206;DHT22;17010;51.306;3.150;2023-05-21T03:58:52;12.60;99.90
30206;DHT22;17010;51.306;3.150;2023-05-21T04:01:18;12.70;99.90
30206;DHT22;17010;51.306;3.150;2023-05-21T04:03:44;12.70;99.90
30206;DHT22;17010;51.306;3.150;2023-05-21T04:06:10;12.70;99.90
30206;DHT22;17010;51.306;3.150;2023-05-21T04:08:37;12.70;99.90
30206;DHT22;17010;51.306;3.150;2023-05-21T04:11:03;12.70;99.90
30206;DHT22;17010;51.306;3.150;2023-05-21T04:13:29;12.60;99.90
30206;DHT22;17010;51.306;3.150;2023-05-21T04:15:56;12.70;99.90
30206;DHT22;17010;51.306;3.150;2023-05-21T04:18:24;12.70;99.90
30206;DHT22;17010;51.306;3.150;2023-05-21T04:20:51;12.70;99.90
30206;DHT22;17010;51.306;3.150;2023-05-21T04:23:17;12.80;99.90
30206;DHT22;17010;51.306;3.150;2023-05-21T04:25:43;12.70;99.90
30206;DHT22;17010;51.306;3.150;2023-05-21T04:28:10;12.70;99.90
30206;DHT22;17010;51.306;3.150;2023-05-21T04:30:36;12.80;99.90
30206;DHT22;17010;51.306;3.150;2023-05-21T04:33:02;12.80;99.90
30206;DHT22;17010;51.306;3.150;2023-05-21T04:35:29;12.80;99.90
30206;DHT22;17010;51.306;3.150;2023-05-21T04:38:00;12.80;99.90
30206;DHT22;17010;51.306;3.150;2023-05-21T04:40:26;12.80;99.90
30206;DHT22;17010;51.306;3.150;2023-05-21T04:42:52;12.80;99.90
30206;DHT22;17010;51.306;3.150;2023-05-21T04:45:19;12.90;99.90
30206;DHT22;17010;51.306;3.150;2023-05-21T04:47:46;12.80;99.90
30206;DHT22;17010;51.306;3.150;2023-05-21T04:50:13;12.90;99.90
30206;DHT22;17010;51.306;3.150;2023-05-21T04:52:40;12.80;99.90
30206;DHT22;17010;51.306;3.150;2023-05-21T04:55:07;12.90;99.90
30206;DHT22;17010;51.306;3.150;2023-05-21T04:57:34;12.90;99.90
30206;DHT22;17010;51.306;3.150;2023-05-21T05:00:00;12.90;99.90
30206;DHT22;17010;51.306;3.150;2023-05-21T05:02:27;12.90;99.90
30206;DHT22;17010;51.306;3.150;2023-05-21T05:04:53;12.90;99.90
30206;DHT22;17010;51.306;3.150;2023-05-21T05:07:19;13.00;99.90
30206;DHT22;17010;51.306;3.150;2023-05-21T05:09:47;13.00;99.90
30206;DHT22;17010;51.306;3.150;2023-05-21T05:12:13;13.00;99.90
30206;DHT22;17010;51.306;3.150;2023-05-21T05:14:39;13.00;99.90
30206;DHT22;17010;51.306;3.150;2023-05-21T05:17:06;13.10;99.90
30206;DHT22;17010;51.306;3.150;2023-05-21T05:19:35;13.10;99.90
30206;DHT22;17010;51.306;3.150;2023-05-21T05:22:02;13.10;99.90
30206;DHT22;17010;51.306;3.150;2023-05-21T05:24:28;13.10;99.90
30206;DHT22;17010;51.306;3.150;2023-05-21T05:26:55;13.10;99.90
30206;DHT22;17010;51.306;3.150;2023-05-21T05:29:26;13.10;99.90
30206;DHT22;17010;51.306;3.150;2023-05-21T05:31:52;13.10;99.90
30206;DHT22;17010;51.306;3.150;2023-05-21T05:34:18;13.10;99.90
30206;DHT22;17010;51.306;3.150;2023-05-21T05:36:45;13.20;99.90
30206;DHT22;17010;51.306;3.150;2023-05-21T05:39:11;13.30;99.90
30206;DHT22;17010;51.306;3.150;2023-05-21T05:41:38;13.30;99.90
30206;DHT22;17010;51.306;3.150;2023-05-21T05:44:05;13.40;99.90
30206;DHT22;17010;51.306;3.150;2023-05-21T05:46:32;13.50;99.90
30206;DHT22;17010;51.306;3.150;2023-05-21T05:48:58;13.50;99.90
30206;DHT22;17010;51.306;3.150;2023-05-21T05:51:28;13.60;99.90
30206;DHT22;17010;51.306;3.150;2023-05-21T05:53:55;13.60;99.90
30206;DHT22;17010;51.306;3.150;2023-05-21T05:56:21;13.60;99.90
30206;DHT22;17010;51.306;3.150;2023-05-21T05:58:47;13.60;99.90
30206;DHT22;17010;51.306;3.150;2023-05-21T06:01:13;13.70;99.90
30206;DHT22;17010;51.306;3.150;2023-05-21T06:03:44;13.80;99.90
30206;DHT22;17010;51.306;3.150;2023-05-21T06:06:11;13.90;99.90
30206;DHT22;17010;51.306;3.150;2023-05-21T06:08:38;14.10;99.90
30206;DHT22;17010;51.306;3.150;2023-05-21T06:11:05;14.10;99.90
30206;DHT22;17010;51.306;3.150;2023-05-21T06:13:32;14.20;99.90
30206;DHT22;17010;51.306;3.150;2023-05-21T06:16:00;14.30;99.90
30206;DHT22;17010;51.306;3.150;2023-05-21T06:18:26;14.30;99.90
30206;DHT22;17010;51.306;3.150;2023-05-21T06:20:53;14.30;99.90
30206;DHT22;17010;51.306;3.150;2023-05-21T06:23:19;14.40;99.90
30206;DHT22;17010;51.306;3.150;2023-05-21T06:25:46;14.60;99.90
30206;DHT22;17010;51.306;3.150;2023-05-21T06:28:13;14.60;99.90
30206;DHT22;17010;51.306;3.150;2023-05-21T06:30:41;14.60;99.90
30206;DHT22;17010;51.306;3.150;2023-05-21T06:33:07;14.70;99.90
30206;DHT22;17010;51.306;3.150;2023-05-21T06:35:33;14.60;99.90
30206;DHT22;17010;51.306;3.150;2023-05-21T06:38:03;14.70;99.90
30206;DHT22;17010;51.306;3.150;2023-05-21T06:40:30;14.60;99.90
30206;DHT22;17010;51.306;3.150;2023-05-21T06:42:56;14.60;99.90
30206;DHT22;17010;51.306;3.150;2023-05-21T06:45:24;14.60;99.90
30206;DHT22;17010;51.306;3.150;2023-05-21T06:47:51;14.60;99.90
30206;DHT22;17010;51.306;3.150;2023-05-21T06:50:17;14.80;99.90
30206;DHT22;17010;51.306;3.150;2023-05-21T06:52:46;14.70;99.90
30206;DHT22;17010;51.306;3.150;2023-05-21T06:55:12;14.70;99.90
30206;DHT22;17010;51.306;3.150;2023-05-21T06:57:38;14.90;99.90
30206;DHT22;17010;51.306;3.150;2023-05-21T07:00:05;14.80;99.90
30206;DHT22;17010;51.306;3.150;2023-05-21T07:02:34;14.60;99.90
30206;DHT22;17010;51.306;3.150;2023-05-21T07:05:01;14.70;99.90
30206;DHT22;17010;51.306;3.150;2023-05-21T07:07:27;14.70;99.90
30206;DHT22;17010;51.306;3.150;2023-05-21T07:09:54;14.80;99.90
30206;DHT22;17010;51.306;3.150;2023-05-21T07:12:22;14.80;99.90
30206;DHT22;17010;51.306;3.150;2023-05-21T07:14:52;14.90;99.90
30206;DHT22;17010;51.306;3.150;2023-05-21T07:17:27;14.80;99.90
30206;DHT22;17010;51.306;3.150;2023-05-21T07:19:53;15.00;99.90
30206;DHT22;17010;51.306;3.150;2023-05-21T07:22:20;15.00;99.90
30206;DHT22;17010;51.306;3.150;2023-05-21T07:24:46;15.00;99.90
30206;DHT22;17010;51.306;3.150;2023-05-21T07:27:13;15.10;99.90
30206;DHT22;17010;51.306;3.150;2023-05-21T07:29:41;15.10;99.90
30206;DHT22;17010;51.306;3.150;2023-05-21T07:32:08;15.20;99.90
30206;DHT22;17010;51.306;3.150;2023-05-21T07:34:35;15.00;99.90
30206;DHT22;17010;51.306;3.150;2023-05-21T07:37:01;15.00;99.90
30206;DHT22;17010;51.306;3.150;2023-05-21T07:39:27;15.00;99.90
30206;DHT22;17010;51.306;3.150;2023-05-21T07:41:53;15.00;99.90
30206;DHT22;17010;51.306;3.150;2023-05-21T07:44:20;15.00;99.90
30206;DHT22;17010;51.306;3.150;2023-05-21T07:46:46;15.00;99.90
30206;DHT22;17010;51.306;3.150;2023-05-21T07:49:13;15.00;99.90
30206;DHT22;17010;51.306;3.150;2023-05-21T07:51:42;15.10;99.90
30206;DHT22;17010;51.306;3.150;2023-05-21T07:54:09;15.30;99.90
30206;DHT22;17010;51.306;3.150;2023-05-21T07:56:36;15.60;99.90
30206;DHT22;17010;51.306;3.150;2023-05-21T07:59:03;15.80;99.90
30206;DHT22;17010;51.306;3.150;2023-05-21T08:01:29;15.80;99.90
30206;DHT22;17010;51.306;3.150;2023-05-21T08:03:55;16.10;99.90
30206;DHT22;17010;51.306;3.150;2023-05-21T08:06:21;16.30;99.90
30206;DHT22;17010;51.306;3.150;2023-05-21T08:08:49;16.40;99.90
30206;DHT22;17010;51.306;3.150;2023-05-21T08:11:20;16.60;99.90
30206;DHT22;17010;51.306;3.150;2023-05-21T08:13:47;16.70;99.90
30206;DHT22;17010;51.306;3.150;2023-05-21T08:16:13;16.80;99.90
30206;DHT22;17010;51.306;3.150;2023-05-21T08:18:40;16.70;99.90
30206;DHT22;17010;51.306;3.150;2023-05-21T08:21:07;16.30;99.90
30206;DHT22;17010;51.306;3.150;2023-05-21T08:23:34;16.30;99.90
30206;DHT22;17010;51.306;3.150;2023-05-21T08:26:01;16.30;99.90
30206;DHT22;17010;51.306;3.150;2023-05-21T08:28:27;16.60;99.90
30206;DHT22;17010;51.306;3.150;2023-05-21T08:30:54;17.00;99.90
30206;DHT22;17010;51.306;3.150;2023-05-21T08:33:21;17.30;99.90
30206;DHT22;17010;51.306;3.150;2023-05-21T08:35:48;17.50;99.90
30206;DHT22;17010;51.306;3.150;2023-05-21T08:38:14;17.50;99.90
30206;DHT22;17010;51.306;3.150;2023-05-21T08:40:41;17.30;99.90
30206;DHT22;17010;51.306;3.150;2023-05-21T08:43:08;17.00;99.90
30206;DHT22;17010;51.306;3.150;2023-05-21T08:45:40;17.30;99.90
30206;DHT22;17010;51.306;3.150;2023-05-21T08:48:09;17.30;99.90
30206;DHT22;17010;51.306;3.150;2023-05-21T08:50:36;17.00;99.90
30206;DHT22;17010;51.306;3.150;2023-05-21T08:53:02;17.00;99.90
30206;DHT22;17010;51.306;3.150;2023-05-21T08:55:30;16.90;99.90
30206;DHT22;17010;51.306;3.150;2023-05-21T08:57:57;16.80;99.90
30206;DHT22;17010;51.306;3.150;2023-05-21T09:00:23;16.90;99.90
30206;DHT22;17010;51.306;3.150;2023-05-21T09:02:52;17.10;99.90
30206;DHT22;17010;51.306;3.150;2023-05-21T09:05:21;16.70;99.90
30206;DHT22;17010;51.306;3.150;2023-05-21T09:07:58;16.70;99.90
30206;DHT22;17010;51.306;3.150;2023-05-21T09:10:37;16.70;99.90
30206;DHT22;17010;51.306;3.150;2023-05-21T09:13:04;16.60;99.90
30206;DHT22;17010;51.306;3.150;2023-05-21T09:15:32;16.40;99.90
30206;DHT22;17010;51.306;3.150;2023-05-21T09:17:58;16.50;99.90
30206;DHT22;17010;51.306;3.150;2023-05-21T09:20:25;16.70;99.90
30206;DHT22;17010;51.306;3.150;2023-05-21T09:22:52;17.00;99.90
30206;DHT22;17010;51.306;3.150;2023-05-21T09:25:25;16.90;99.90
30206;DHT22;17010;51.306;3.150;2023-05-21T09:27:55;16.90;99.90
30206;DHT22;17010;51.306;3.150;2023-05-21T09:30:21;17.10;99.90
30206;DHT22;17010;51.306;3.150;2023-05-21T09:32:55;17.30;99.90
30206;DHT22;17010;51.306;3.150;2023-05-21T09:35:21;17.40;99.90
30206;DHT22;17010;51.306;3.150;2023-05-21T09:37:48;17.40;99.90
30206;DHT22;17010;51.306;3.150;2023-05-21T09:40:17;17.20;99.90
30206;DHT22;17010;51.306;3.150;2023-05-21T09:42:47;17.00;99.90
30206;DHT22;17010;51.306;3.150;2023-05-21T09:45:18;16.90;99.90
30206;DHT22;17010;51.306;3.150;2023-05-21T09:47:45;16.60;99.90
30206;DHT22;17010;51.306;3.150;2023-05-21T09:50:18;16.40;99.90
30206;DHT22;17010;51.306;3.150;2023-05-21T09:52:44;16.20;99.90
30206;DHT22;17010;51.306;3.150;2023-05-21T09:55:13;16.00;99.90
30206;DHT22;17010;51.306;3.150;2023-05-21T09:57:45;16.00;99.90
30206;DHT22;17010;51.306;3.150;2023-05-21T10:00:22;16.10;99.90
30206;DHT22;17010;51.306;3.150;2023-05-21T10:02:53;16.20;99.90
30206;DHT22;17010;51.306;3.150;2023-05-21T10:05:23;16.50;99.90
30206;DHT22;17010;51.306;3.150;2023-05-21T10:07:52;16.40;99.90
30206;DHT22;17010;51.306;3.150;2023-05-21T10:10:23;16.30;99.90
30206;DHT22;17010;51.306;3.150;2023-05-21T10:12:58;16.30;99.90
30206;DHT22;17010;51.306;3.150;2023-05-21T10:15:27;16.40;99.90
30206;DHT22;17010;51.306;3.150;2023-05-21T10:17:55;16.70;99.90
30206;DHT22;17010;51.306;3.150;2023-05-21T10:20:22;16.60;99.90
30206;DHT22;17010;51.306;3.150;2023-05-21T10:22:49;16.60;99.90
30206;DHT22;17010;51.306;3.150;2023-05-21T10:25:15;16.70;99.90
30206;DHT22;17010;51.306;3.150;2023-05-21T10:27:42;16.60;99.90
30206;DHT22;17010;51.306;3.150;2023-05-21T10:30:08;16.50;99.90
30206;DHT22;17010;51.306;3.150;2023-05-21T10:32:36;16.50;99.90
30206;DHT22;17010;51.306;3.150;2023-05-21T10:35:05;16.20;99.90
30206;DHT22;17010;51.306;3.150;2023-05-21T10:37:33;16.30;99.90
30206;DHT22;17010;51.306;3.150;2023-05-21T10:39:59;16.30;99.90
30206;DHT22;17010;51.306;3.150;2023-05-21T10:45:36;16.50;99.90
30206;DHT22;17010;51.306;3.150;2023-05-21T10:51:09;16.30;99.90
30206;DHT22;17010;51.306;3.150;2023-05-21T10:53:47;16.30;99.90
30206;DHT22;17010;51.306;3.150;2023-05-21T10:56:35;16.20;99.90
30206;DHT22;17010;51.306;3.150;2023-05-21T10:59:26;16.30;99.90
30206;DHT22;17010;51.306;3.150;2023-05-21T11:01:58;16.20;99.90
30206;DHT22;17010;51.306;3.150;2023-05-21T11:04:28;15.80;99.90
30206;DHT22;17010;51.306;3.150;2023-05-21T11:06:54;15.80;99.90
30206;DHT22;17010;51.306;3.150;2023-05-21T11:09:23;15.90;99.90
30206;DHT22;17010;51.306;3.150;2023-05-21T11:11:56;16.00;99.90
30206;DHT22;17010;51.306;3.150;2023-05-21T11:17:16;16.20;99.90
30206;DHT22;17010;51.306;3.150;2023-05-21T11:20:13;16.50;99.90
30206;DHT22;17010;51.306;3.150;2023-05-21T11:22:39;16.80;99.90
30206;DHT22;17010;51.306;3.150;2023-05-21T11:25:07;17.00;99.90
30206;DHT22;17010;51.306;3.150;2023-05-21T11:27:40;17.10;99.90
30206;DHT22;17010;51.306;3.150;2023-05-21T11:30:25;17.10;99.90
30206;DHT22;17010;51.306;3.150;2023-05-21T11:38:12;17.10;99.90
30206;DHT22;17010;51.306;3.150;2023-05-21T11:40:49;17.30;99.90
30206;DHT22;17010;51.306;3.150;2023-05-21T11:43:17;17.00;99.90
30206;DHT22;17010;51.306;3.150;2023-05-21T11:45:43;16.60;99.90
30206;DHT22;17010;51.306;3.150;2023-05-21T11:48:15;16.60;99.90
30206;DHT22;17010;51.306;3.150;2023-05-21T11:50:42;16.60;99.90
30206;DHT22;17010;51.306;3.150;2023-05-21T11:53:10;16.80;99.90
30206;DHT22;17010;51.306;3.150;2023-05-21T11:55:38;16.90;99.90
30206;DHT22;17010;51.306;3.150;2023-05-21T11:58:12;17.00;99.90
30206;DHT22;17010;51.306;3.150;2023-05-21T12:00:39;16.60;99.90
30206;DHT22;17010;51.306;3.150;2023-05-21T12:03:06;16.60;99.90
30206;DHT22;17010;51.306;3.150;2023-05-21T12:05:49;16.30;99.90
30206;DHT22;17010;51.306;3.150;2023-05-21T12:08:21;16.30;99.90
30206;DHT22;17010;51.306;3.150;2023-05-21T12:10:57;16.50;99.90
30206;DHT22;17010;51.306;3.150;2023-05-21T12:13:23;16.40;99.90
30206;DHT22;17010;51.306;3.150;2023-05-21T12:15:54;16.60;99.90
30206;DHT22;17010;51.306;3.150;2023-05-21T12:18:20;16.90;99.90
30206;DHT22;17010;51.306;3.150;2023-05-21T12:20:50;17.10;99.90
30206;DHT22;17010;51.306;3.150;2023-05-21T12:23:23;17.20;99.90
30206;DHT22;17010;51.306;3.150;2023-05-21T12:25:50;17.30;99.90
30206;DHT22;17010;51.306;3.150;2023-05-21T12:28:20;17.30;99.90
30206;DHT22;17010;51.306;3.150;2023-05-21T12:30:50;17.10;99.90
30206;DHT22;17010;51.306;3.150;2023-05-21T12:33:18;17.00;99.90
30206;DHT22;17010;51.306;3.150;2023-05-21T12:35:45;17.10;99.90
30206;DHT22;17010;51.306;3.150;2023-05-21T12:38:14;17.20;99.90
30206;DHT22;17010;51.306;3.150;2023-05-21T12:40:44;17.30;99.90
30206;DHT22;17010;51.306;3.150;2023-05-21T12:43:10;17.40;99.90
30206;DHT22;17010;51.306;3.150;2023-05-21T12:45:37;17.40;99.90
30206;DHT22;17010;51.306;3.150;2023-05-21T12:48:04;17.40;99.90
30206;DHT22;17010;51.306;3.150;2023-05-21T12:50:32;16.80;99.90
30206;DHT22;17010;51.306;3.150;2023-05-21T12:53:00;16.70;99.90
30206;DHT22;17010;51.306;3.150;2023-05-21T12:55:26;16.70;99.90
30206;DHT22;17010;51.306;3.150;2023-05-21T12:58:01;17.00;99.90
30206;DHT22;17010;51.306;3.150;2023-05-21T13:00:28;17.20;99.90
30206;DHT22;17010;51.306;3.150;2023-05-21T13:02:55;17.20;99.90
30206;DHT22;17010;51.306;3.150;2023-05-21T13:05:25;17.20;99.90
30206;DHT22;17010;51.306;3.150;2023-05-21T13:07:51;17.10;99.90
30206;DHT22;17010;51.306;3.150;2023-05-21T13:10:17;17.00;99.90
30206;DHT22;17010;51.306;3.150;2023-05-21T13:12:43;16.90;99.90
30206;DHT22;17010;51.306;3.150;2023-05-21T13:15:11;16.80;99.90
30206;DHT22;17010;51.306;3.150;2023-05-21T13:17:37;16.80;99.90
30206;DHT22;17010;51.306;3.150;2023-05-21T13:22:38;16.90;99.90
30206;DHT22;17010;51.306;3.150;2023-05-21T13:25:10;17.10;99.90
30206;DHT22;17010;51.306;3.150;2023-05-21T13:27:42;16.80;99.90
30206;DHT22;17010;51.306;3.150;2023-05-21T13:30:11;16.60;99.90
30206;DHT22;17010;51.306;3.150;2023-05-21T13:32:39;16.50;99.90
30206;DHT22;17010;51.306;3.150;2023-05-21T13:35:07;16.20;99.90
30206;DHT22;17010;51.306;3.150;2023-05-21T13:37:35;16.10;99.90
30206;DHT22;17010;51.306;3.150;2023-05-21T13:40:05;16.10;99.90
30206;DHT22;17010;51.306;3.150;2023-05-21T13:42:33;16.10;99.90
30206;DHT22;17010;51.306;3.150;2023-05-21T13:45:00;16.10;99.90
30206;DHT22;17010;51.306;3.150;2023-05-21T13:47:26;16.10;99.90
30206;DHT22;17010;51.306;3.150;2023-05-21T13:49:53;15.90;99.90
30206;DHT22;17010;51.306;3.150;2023-05-21T13:52:20;15.70;99.90
30206;DHT22;17010;51.306;3.150;2023-05-21T13:54:57;15.80;99.90
30206;DHT22;17010;51.306;3.150;2023-05-21T13:57:23;15.70;99.90
30206;DHT22;17010;51.306;3.150;2023-05-21T13:59:53;15.60;99.90
30206;DHT22;17010;51.306;3.150;2023-05-21T14:02:20;15.70;99.90
30206;DHT22;17010;51.306;3.150;2023-05-21T14:04:47;15.70;99.90
30206;DHT22;17010;51.306;3.150;2023-05-21T14:07:15;15.70;99.90
30206;DHT22;17010;51.306;3.150;2023-05-21T14:09:42;15.60;99.90
30206;DHT22;17010;51.306;3.150;2023-05-21T14:12:10;15.60;99.90
30206;DHT22;17010;51.306;3.150;2023-05-21T14:14:36;15.40;99.90
30206;DHT22;17010;51.306;3.150;2023-05-21T14:17:03;15.30;99.90
30206;DHT22;17010;51.306;3.150;2023-05-21T14:19:30;15.40;99.90
30206;DHT22;17010;51.306;3.150;2023-05-21T14:21:56;15.40;99.90
30206;DHT22;17010;51.306;3.150;2023-05-21T14:24:25;15.40;99.90
30206;DHT22;17010;51.306;3.150;2023-05-21T14:26:51;15.40;99.90
30206;DHT22;17010;51.306;3.150;2023-05-21T14:29:18;15.50;99.90
30206;DHT22;17010;51.306;3.150;2023-05-21T14:31:44;15.60;99.90
30206;DHT22;17010;51.306;3.150;2023-05-21T14:34:11;15.60;99.90
30206;DHT22;17010;51.306;3.150;2023-05-21T14:36:38;15.60;99.90
30206;DHT22;17010;51.306;3.150;2023-05-21T14:39:06;15.40;99.90
30206;DHT22;17010;51.306;3.150;2023-05-21T14:41:37;15.40;99.90
30206;DHT22;17010;51.306;3.150;2023-05-21T14:44:04;15.50;99.90
30206;DHT22;17010;51.306;3.150;2023-05-21T14:46:30;15.70;99.90
30206;DHT22;17010;51.306;3.150;2023-05-21T14:48:57;15.90;99.90
30206;DHT22;17010;51.306;3.150;2023-05-21T14:51:25;15.90;99.90
30206;DHT22;17010;51.306;3.150;2023-05-21T14:53:52;15.90;99.90
30206;DHT22;17010;51.306;3.150;2023-05-21T14:56:18;15.80;99.90
30206;DHT22;17010;51.306;3.150;2023-05-21T14:58:46;15.70;99.90
30206;DHT22;17010;51.306;3.150;2023-05-21T15:01:14;15.60;99.90
30206;DHT22;17010;51.306;3.150;2023-05-21T15:03:40;15.60;99.90
30206;DHT22;17010;51.306;3.150;2023-05-21T15:06:06;15.70;99.90
30206;DHT22;17010;51.306;3.150;2023-05-21T15:08:32;15.70;99.90
30206;DHT22;17010;51.306;3.150;2023-05-21T15:10:59;15.80;99.90
30206;DHT22;17010;51.306;3.150;2023-05-21T15:13:25;15.80;99.90
30206;DHT22;17010;51.306;3.150;2023-05-21T15:15:52;15.70;99.90
30206;DHT22;17010;51.306;3.150;2023-05-21T15:18:20;15.60;99.90
30206;DHT22;17010;51.306;3.150;2023-05-21T15:20:46;15.50;99.90
30206;DHT22;17010;51.306;3.150;2023-05-21T15:23:12;15.40;99.90
30206;DHT22;17010;51.306;3.150;2023-05-21T15:25:39;15.50;99.90
30206;DHT22;17010;51.306;3.150;2023-05-21T15:28:05;15.60;99.90
30206;DHT22;17010;51.306;3.150;2023-05-21T15:30:31;15.60;99.90
30206;DHT22;17010;51.306;3.150;2023-05-21T15:32:58;15.60;99.90
30206;DHT22;17010;51.306;3.150;2023-05-21T15:35:24;15.60;99.90
30206;DHT22;17010;51.306;3.150;2023-05-21T15:37:53;15.50;99.90
30206;DHT22;17010;51.306;3.150;2023-05-21T15:40:19;15.30;99.90
30206;DHT22;17010;51.306;3.150;2023-05-21T15:42:45;15.20;99.90
30206;DHT22;17010;51.306;3.150;2023-05-21T15:45:11;15.20;99.90
30206;DHT22;17010;51.306;3.150;2023-05-21T15:47:38;15.20;99.90
30206;DHT22;17010;51.306;3.150;2023-05-21T15:50:08;15.20;99.90
30206;DHT22;17010;51.306;3.150;2023-05-21T15:52:34;15.20;99.90